createdAt,value
2019-03-09T00:00:44.293Z,100653.86
2019-03-09T00:03:19.825Z,100655.41
2019-03-09T00:05:51.631Z,100655.78
2019-03-09T00:08:26.941Z,100648.27
2019-03-09T00:11:03.687Z,100648.76
2019-03-09T00:13:36.556Z,100637.61
2019-03-09T00:16:14.088Z,100626.35
2019-03-09T00:18:46.982Z,100619.73
2019-03-09T00:21:22.107Z,100614.95
2019-03-09T00:24:27.946Z,100610.83
2019-03-09T00:27:18.448Z,100611.77
2019-03-09T00:30:07.926Z,100598.02
2019-03-09T00:32:41.711Z,100609.04
2019-03-09T00:35:15.359Z,100599.33
2019-03-09T00:40:45.520Z,100598.00
2019-03-09T00:43:17.209Z,100598.16
2019-03-09T00:45:56.336Z,100593.61
2019-03-09T00:48:28.656Z,100587.53
2019-03-09T00:51:00.672Z,100584.51
2019-03-09T00:53:34.308Z,100575.17
2019-03-09T00:56:07.702Z,100571.94
2019-03-09T00:58:44.570Z,100568.32
2019-03-09T01:01:19.009Z,100559.79
2019-03-09T01:03:51.935Z,100561.64
2019-03-09T01:06:23.520Z,100541.33
2019-03-09T01:08:59.512Z,100546.56
2019-03-09T01:11:36.195Z,100544.00
2019-03-09T01:14:10.725Z,100541.66
2019-03-09T01:16:43.275Z,100535.32
2019-03-09T01:19:25.355Z,100526.82
2019-03-09T01:21:58.178Z,100530.58
2019-03-09T01:24:43.535Z,100530.28
2019-03-09T01:27:16.012Z,100526.11
2019-03-09T01:29:57.063Z,100512.09
2019-03-09T01:32:29.172Z,100512.53
2019-03-09T01:35:00.039Z,100501.37
2019-03-09T01:37:32.362Z,100498.05
2019-03-09T01:40:10.486Z,100498.45
2019-03-09T01:42:42.586Z,100496.77
2019-03-09T01:45:16.156Z,100482.76
2019-03-09T01:47:52.410Z,100481.31
2019-03-09T01:50:44.653Z,100469.44
2019-03-09T01:53:15.581Z,100466.77
2019-03-09T01:55:52.578Z,100452.70
2019-03-09T01:58:26.051Z,100472.23
2019-03-09T02:01:05.593Z,100461.88
2019-03-09T02:03:53.638Z,100464.92
2019-03-09T02:06:26.333Z,100456.87
2019-03-09T02:08:57.989Z,100447.31
2019-03-09T02:11:31.892Z,100454.30
2019-03-09T02:14:05.835Z,100456.84
2019-03-09T02:16:39.790Z,100445.72
2019-03-09T02:19:12.632Z,100445.83
2019-03-09T02:21:50.924Z,100441.16
2019-03-09T02:24:31.035Z,100452.91
2019-03-09T02:27:21.684Z,100431.91
2019-03-09T02:29:59.383Z,100443.94
2019-03-09T02:32:31.514Z,100453.38
2019-03-09T02:35:06.572Z,100455.67
2019-03-09T02:37:38.211Z,100436.70
2019-03-09T02:40:12.194Z,100430.08
2019-03-09T02:42:55.442Z,100431.25
2019-03-09T02:45:32.385Z,100432.36
2019-03-09T02:48:13.734Z,100432.89
2019-03-09T02:51:02.204Z,100427.45
2019-03-09T02:53:39.597Z,100441.52
2019-03-09T02:56:15.135Z,100439.29
2019-03-09T02:58:49.137Z,100439.53
2019-03-09T03:01:44.111Z,100428.73
2019-03-09T03:04:16.955Z,100427.66
2019-03-09T03:06:52.195Z,100417.23
2019-03-09T03:09:24.353Z,100429.59
2019-03-09T03:11:56.705Z,100429.06
2019-03-09T03:14:29.446Z,100433.63
2019-03-09T03:17:02.838Z,100434.32
2019-03-09T03:19:37.561Z,100434.28
2019-03-09T03:22:19.176Z,100436.76
2019-03-09T03:24:51.651Z,100428.28
2019-03-09T03:27:25.099Z,100428.43
2019-03-09T03:29:56.122Z,100435.36
2019-03-09T03:32:30.802Z,100436.03
2019-03-09T03:35:02.283Z,100439.67
2019-03-09T03:37:33.476Z,100437.02
2019-03-09T03:40:06.993Z,100442.11
2019-03-09T03:42:41.642Z,100449.84
2019-03-09T03:45:15.364Z,100450.38
2019-03-09T03:47:56.422Z,100454.00
2019-03-09T03:50:38.726Z,100459.43
2019-03-09T03:53:17.759Z,100460.48
2019-03-09T03:55:56.878Z,100454.42
2019-03-09T03:58:31.704Z,100453.81
2019-03-09T04:01:04.491Z,100458.09
2019-03-09T04:03:34.716Z,100452.28
2019-03-09T04:06:06.970Z,100462.07
2019-03-09T04:08:40.339Z,100460.46
2019-03-09T04:11:28.495Z,100451.84
2019-03-09T04:14:03.910Z,100453.93
2019-03-09T04:19:33.485Z,100459.41
2019-03-09T04:22:04.629Z,100464.61
2019-03-09T04:24:39.912Z,100477.59
2019-03-09T04:27:19.374Z,100472.70
2019-03-09T04:29:57.110Z,100464.59
2019-03-09T04:32:35.836Z,100475.55
2019-03-09T04:35:06.285Z,100478.05
2019-03-09T04:37:41.861Z,100482.97
2019-03-09T04:40:13.723Z,100491.56
2019-03-09T04:42:48.530Z,100499.08
2019-03-09T04:45:20.727Z,100511.66
2019-03-09T04:47:53.868Z,100514.17
2019-03-09T04:50:32.194Z,100521.78
2019-03-09T04:53:08.274Z,100512.84
2019-03-09T04:55:43.314Z,100519.27
2019-03-09T04:58:16.143Z,100516.80
2019-03-09T05:00:51.361Z,100516.53
2019-03-09T05:03:23.904Z,100528.98
2019-03-09T05:05:55.770Z,100517.03
2019-03-09T05:09:01.702Z,100513.96
2019-03-09T05:11:36.437Z,100533.47
2019-03-09T05:14:12.189Z,100537.67
2019-03-09T05:16:49.884Z,100557.30
2019-03-09T05:19:22.038Z,100554.30
2019-03-09T05:21:54.960Z,100556.84
2019-03-09T05:24:25.788Z,100563.06
2019-03-09T05:26:56.701Z,100551.48
2019-03-09T05:29:28.557Z,100537.35
2019-03-09T05:32:00.928Z,100531.82
2019-03-09T05:34:35.358Z,100515.86
2019-03-09T05:37:07.430Z,100539.03
2019-03-09T05:39:38.243Z,100555.50
2019-03-09T05:42:10.732Z,100564.68
2019-03-09T05:44:43.300Z,100575.31
2019-03-09T05:47:19.891Z,100582.65
2019-03-09T05:49:58.347Z,100604.88
2019-03-09T05:52:39.097Z,100611.91
2019-03-09T05:55:18.944Z,100603.70
2019-03-09T05:57:51.995Z,100613.08
2019-03-09T06:00:22.877Z,100610.80
2019-03-09T06:03:05.544Z,100604.48
2019-03-09T06:06:02.923Z,100608.01
2019-03-09T06:08:41.691Z,100602.52
2019-03-09T06:11:21.297Z,100591.36
2019-03-09T06:13:56.542Z,100586.13
2019-03-09T06:16:45.251Z,100579.41
2019-03-09T06:19:20.919Z,100560.56
2019-03-09T06:22:00.022Z,100566.49
2019-03-09T06:24:30.855Z,100576.78
2019-03-09T06:27:03.231Z,100580.24
2019-03-09T06:29:34.185Z,100582.53
2019-03-09T06:32:40.827Z,100586.42
2019-03-09T06:35:14.275Z,100602.70
2019-03-09T06:37:50.246Z,100605.48
2019-03-09T06:40:23.009Z,100609.67
2019-03-09T06:42:57.104Z,100625.67
2019-03-09T06:45:39.680Z,100639.53
2019-03-09T06:48:10.849Z,100652.55
2019-03-09T06:50:51.333Z,100651.70
2019-03-09T06:53:22.922Z,100651.07
2019-03-09T06:55:55.321Z,100661.20
2019-03-09T06:58:28.200Z,100664.73
2019-03-09T07:00:59.525Z,100667.42
2019-03-09T07:03:33.823Z,100674.67
2019-03-09T07:06:12.266Z,100676.84
2019-03-09T07:08:48.120Z,100683.09
2019-03-09T07:11:32.367Z,100691.37
2019-03-09T07:14:46.727Z,100703.48
2019-03-09T07:17:20.725Z,100715.08
2019-03-09T07:19:55.971Z,100711.37
2019-03-09T07:22:32.438Z,100710.80
2019-03-09T07:25:05.640Z,100714.58
2019-03-09T07:27:37.285Z,100706.46
2019-03-09T07:30:12.169Z,100715.66
2019-03-09T07:32:44.473Z,100705.53
2019-03-09T07:35:16.529Z,100706.55
2019-03-09T07:37:48.391Z,100716.39
2019-03-09T07:40:25.383Z,100727.67
2019-03-09T07:43:09.870Z,100740.92
2019-03-09T07:45:44.149Z,100735.77
2019-03-09T07:48:16.340Z,100738.58
2019-03-09T07:50:48.109Z,100736.23
2019-03-09T07:53:20.277Z,100741.34
2019-03-09T07:55:56.766Z,100737.86
2019-03-09T07:58:29.009Z,100725.55
2019-03-09T08:01:00.484Z,100731.06
2019-03-09T08:03:32.710Z,100738.38
2019-03-09T08:06:11.426Z,100748.31
2019-03-09T08:08:47.082Z,100755.80
2019-03-09T08:11:20.223Z,100741.39
2019-03-09T08:13:57.868Z,100756.14
2019-03-09T08:16:35.946Z,100767.73
2019-03-09T08:19:03.954Z,100767.93
2019-03-09T08:21:44.598Z,100767.30
2019-03-09T08:24:15.854Z,100766.36
2019-03-09T08:26:53.481Z,100771.66
2019-03-09T08:29:29.090Z,100777.59
2019-03-09T08:32:02.150Z,100786.23
2019-03-09T08:34:34.311Z,100783.13
2019-03-09T08:37:31.603Z,100782.36
2019-03-09T08:40:11.891Z,100779.87
2019-03-09T08:42:46.376Z,100771.30
2019-03-09T08:45:22.922Z,100762.24
2019-03-09T08:47:55.001Z,100767.01
2019-03-09T08:50:30.039Z,100745.30
2019-03-09T08:53:04.362Z,100762.34
2019-03-09T08:55:58.425Z,100751.47
2019-03-09T08:58:34.535Z,100752.77
2019-03-09T09:01:09.769Z,100753.75
2019-03-09T09:03:42.821Z,100755.73
2019-03-09T09:06:35.937Z,100774.12
2019-03-09T09:09:07.653Z,100785.14
2019-03-09T09:12:10.802Z,100770.22
2019-03-09T09:15:14.941Z,100787.69
2019-03-09T09:18:55.579Z,100785.87
2019-03-09T09:28:20.868Z,100763.09
2019-03-09T09:30:53.199Z,100769.88
2019-03-09T09:33:23.929Z,100763.34
2019-03-09T09:35:55.571Z,100759.19
2019-03-09T09:38:26.271Z,100772.59
2019-03-09T09:40:57.780Z,100767.31
2019-03-09T09:43:28.699Z,100762.61
2019-03-09T09:46:00.796Z,100757.59
2019-03-09T09:48:33.347Z,100751.61
2019-03-09T09:51:04.858Z,100725.83
2019-03-09T09:53:37.650Z,100717.55
2019-03-09T09:56:08.629Z,100720.74
2019-03-09T09:58:39.482Z,100721.73
2019-03-09T10:01:10.120Z,100690.75
2019-03-09T10:03:45.091Z,100720.27
2019-03-09T10:06:23.285Z,100740.99
2019-03-09T10:08:54.982Z,100748.42
2019-03-09T10:11:26.605Z,100732.03
2019-03-09T10:13:57.461Z,100710.66
2019-03-09T10:16:31.346Z,100699.84
2019-03-09T10:19:03.234Z,100688.19
2019-03-09T10:21:35.956Z,100690.38
2019-03-09T10:24:07.844Z,100697.63
2019-03-09T10:26:41.679Z,100715.52
2019-03-09T10:32:49.994Z,100745.73
2019-03-09T10:35:21.833Z,100752.06
2019-03-09T10:38:02.639Z,100762.37
2019-03-09T10:40:33.347Z,100752.14
2019-03-09T10:43:05.095Z,100748.34
2019-03-09T10:45:36.583Z,100747.69
2019-03-09T10:48:07.385Z,100750.27
2019-03-09T10:50:39.855Z,100739.23
2019-03-09T10:53:14.669Z,100739.31
2019-03-09T10:55:50.330Z,100738.02
2019-03-09T10:58:20.629Z,100725.52
2019-03-09T11:00:54.310Z,100734.20
2019-03-09T11:03:26.158Z,100715.52
2019-03-09T11:05:56.602Z,100721.02
2019-03-09T11:08:28.196Z,100716.85
2019-03-09T11:11:01.699Z,100725.16
2019-03-09T11:13:33.432Z,100722.94
2019-03-09T11:16:05.620Z,100704.89
2019-03-09T11:18:37.023Z,100710.96
2019-03-09T11:21:07.892Z,100703.55
2019-03-09T11:23:40.209Z,100692.62
2019-03-09T11:26:11.988Z,100691.00
2019-03-09T11:36:24.322Z,100686.04
2019-03-09T11:39:02.866Z,100683.84
2019-03-09T11:41:37.236Z,100701.08
2019-03-09T11:48:22.561Z,100686.46
2019-03-09T11:55:10.613Z,100660.11
2019-03-09T11:57:51.511Z,100626.99
2019-03-09T12:00:41.465Z,100608.58
2019-03-09T12:03:12.822Z,100612.98
2019-03-09T12:06:04.576Z,100602.88
2019-03-09T12:08:45.743Z,100598.70
2019-03-09T12:11:17.931Z,100560.13
2019-03-09T12:14:04.222Z,100528.56
2019-03-09T12:17:12.272Z,100514.58
2019-03-09T12:19:49.160Z,100494.22
2019-03-09T12:22:21.050Z,100487.08
2019-03-09T12:25:01.991Z,100503.09
2019-03-09T12:27:59.283Z,100507.11
2019-03-09T12:31:14.543Z,100533.95
2019-03-09T12:37:44.106Z,100517.95
2019-03-09T12:41:06.490Z,100499.83
2019-03-09T12:43:48.348Z,100500.17
2019-03-09T12:46:21.619Z,100511.42
2019-03-09T12:48:56.633Z,100493.50
2019-03-09T12:51:34.786Z,100491.30
2019-03-09T12:58:06.643Z,100454.63
2019-03-09T13:00:38.318Z,100447.69
2019-03-09T13:03:16.851Z,100459.73
2019-03-09T13:05:49.060Z,100456.51
2019-03-09T13:08:20.341Z,100449.60
2019-03-09T13:10:52.016Z,100457.39
2019-03-09T13:13:22.931Z,100448.23
2019-03-09T13:15:54.736Z,100438.97
2019-03-09T13:18:28.516Z,100442.16
2019-03-09T13:21:03.452Z,100445.09
2019-03-09T13:23:38.943Z,100466.10
2019-03-09T13:26:12.642Z,100466.03
2019-03-09T13:28:44.136Z,100451.53
2019-03-09T13:31:18.415Z,100465.93
2019-03-09T13:33:51.668Z,100469.73
2019-03-09T13:36:22.489Z,100472.48
2019-03-09T13:38:52.657Z,100452.41
2019-03-09T13:41:25.384Z,100442.95
2019-03-09T13:43:57.255Z,100444.92
2019-03-09T13:46:31.796Z,100427.09
2019-03-09T13:49:02.851Z,100425.95
2019-03-09T13:51:38.535Z,100424.39
2019-03-09T13:54:20.336Z,100437.23
2019-03-09T13:56:55.037Z,100437.16
2019-03-09T13:59:27.386Z,100450.70
2019-03-09T14:01:58.092Z,100426.22
2019-03-09T14:04:29.564Z,100446.66
2019-03-09T14:07:00.423Z,100429.77
2019-03-09T14:09:32.868Z,100433.37
2019-03-09T14:12:04.349Z,100437.05
2019-03-09T14:14:36.422Z,100444.09
2019-03-09T14:17:08.516Z,100429.30
2019-03-09T14:19:39.792Z,100452.68
2019-03-09T14:22:13.745Z,100456.46
2019-03-09T14:24:45.358Z,100443.11
2019-03-09T14:27:16.475Z,100436.99
2019-03-09T14:29:50.905Z,100447.80
2019-03-09T14:32:23.914Z,100426.87
2019-03-09T14:35:28.179Z,100446.52
2019-03-09T14:40:32.554Z,100416.33
2019-03-09T14:43:07.430Z,100435.13
2019-03-09T14:45:39.517Z,100430.71
2019-03-09T14:48:12.034Z,100432.16
2019-03-09T14:50:47.523Z,100442.02
2019-03-09T14:53:19.240Z,100428.19
2019-03-09T14:55:50.305Z,100438.88
2019-03-09T14:58:21.237Z,100441.72
2019-03-09T15:00:52.420Z,100438.11
2019-03-09T15:03:23.911Z,100459.69
2019-03-09T15:05:56.141Z,100445.39
2019-03-09T15:08:27.956Z,100460.00
2019-03-09T15:10:59.735Z,100471.77
2019-03-09T15:13:30.258Z,100433.75
2019-03-09T15:16:12.523Z,100408.36
2019-03-09T15:18:44.357Z,100411.52
2019-03-09T15:21:16.315Z,100396.78
2019-03-09T15:23:49.573Z,100415.16
2019-03-09T15:26:21.438Z,100435.52
2019-03-09T15:28:53.584Z,100400.27
2019-03-09T15:31:29.160Z,100383.91
2019-03-09T15:34:07.224Z,100383.23
2019-03-09T15:36:39.827Z,100384.36
2019-03-09T15:39:14.197Z,100391.46
2019-03-09T15:41:46.721Z,100409.97
2019-03-09T15:44:17.288Z,100420.92
2019-03-09T15:46:48.258Z,100421.62
2019-03-09T15:49:18.803Z,100398.70
2019-03-09T15:51:49.264Z,100394.82
2019-03-09T15:54:20.819Z,100407.70
2019-03-09T15:56:52.037Z,100395.31
2019-03-09T15:59:24.424Z,100403.09
2019-03-09T16:01:56.326Z,100376.77
2019-03-09T16:04:30.047Z,100402.52
2019-03-09T16:07:06.802Z,100401.29
2019-03-09T16:09:37.277Z,100416.83
2019-03-09T16:12:07.449Z,100425.55
2019-03-09T16:14:38.130Z,100445.19
2019-03-09T16:17:09.535Z,100453.84
2019-03-09T16:19:41.019Z,100470.50
2019-03-09T16:22:11.176Z,100487.91
2019-03-09T16:24:43.014Z,100475.73
2019-03-09T16:27:16.162Z,100501.98
2019-03-09T16:29:46.337Z,100523.11
2019-03-09T16:32:16.490Z,100512.83
2019-03-09T16:34:46.673Z,100537.98
2019-03-09T16:37:18.193Z,100534.05
2019-03-09T16:39:48.643Z,100542.42
2019-03-09T16:42:19.173Z,100568.39
2019-03-09T16:44:50.971Z,100573.91
2019-03-09T16:47:21.671Z,100583.15
2019-03-09T16:49:51.862Z,100585.34
2019-03-09T16:52:24.202Z,100595.18
2019-03-09T16:54:54.495Z,100595.19
2019-03-09T16:57:26.145Z,100606.91
2019-03-09T17:00:18.732Z,100617.73
2019-03-09T17:02:50.491Z,100611.75
2019-03-09T17:05:21.017Z,100634.88
2019-03-09T17:07:54.923Z,100647.75
2019-03-09T17:10:28.786Z,100654.18
2019-03-09T17:13:01.787Z,100670.34
2019-03-09T17:15:32.665Z,100686.36
2019-03-09T17:18:03.190Z,100697.18
2019-03-09T17:20:34.119Z,100674.94
2019-03-09T17:23:07.038Z,100704.67
2019-03-09T17:25:38.783Z,100691.59
2019-03-09T17:28:09.012Z,100705.83
2019-03-09T17:30:42.606Z,100731.13
2019-03-09T17:33:14.374Z,100727.11
2019-03-09T17:35:44.545Z,100737.44
2019-03-09T17:38:16.520Z,100740.19
2019-03-09T17:40:47.421Z,100753.47
2019-03-09T17:43:17.689Z,100763.89
2019-03-09T17:45:48.757Z,100767.47
2019-03-09T17:48:20.314Z,100780.27
2019-03-09T17:50:50.942Z,100781.81
2019-03-09T17:53:22.285Z,100788.54
2019-03-09T17:55:52.462Z,100791.12
2019-03-09T17:58:22.623Z,100792.12
2019-03-09T18:00:53.903Z,100797.53
2019-03-09T18:03:24.504Z,100819.00
2019-03-09T18:05:54.725Z,100815.61
2019-03-09T18:08:25.947Z,100822.31
2019-03-09T18:10:59.026Z,100840.98
2019-03-09T18:13:29.188Z,100836.63
2019-03-09T18:16:01.382Z,100844.30
2019-03-09T18:18:35.116Z,100844.88
2019-03-09T18:21:06.721Z,100859.98
2019-03-09T18:23:36.903Z,100869.90
2019-03-09T18:26:12.088Z,100881.02
2019-03-09T18:28:44.208Z,100877.83
2019-03-09T18:31:15.529Z,100883.06
2019-03-09T18:33:45.713Z,100893.64
2019-03-09T18:36:16.493Z,100897.33
2019-03-09T18:38:48.365Z,100902.65
2019-03-09T18:41:19.017Z,100904.48
2019-03-09T18:43:50.277Z,100903.56
2019-03-09T18:46:20.511Z,100918.11
2019-03-09T18:48:51.724Z,100923.90
2019-03-09T18:51:24.191Z,100937.30
2019-03-09T18:53:55.096Z,100929.97
2019-03-09T18:56:26.239Z,100940.25
2019-03-09T18:58:56.879Z,100943.80
2019-03-09T19:01:27.407Z,100941.45
2019-03-09T19:04:01.512Z,100950.27
2019-03-09T19:06:32.539Z,100948.11
2019-03-09T19:09:03.568Z,100940.01
2019-03-09T19:11:37.005Z,100944.23
2019-03-09T19:14:07.182Z,100948.13
2019-03-09T19:16:38.553Z,100954.41
2019-03-09T19:19:08.702Z,100973.53
2019-03-09T19:21:39.351Z,100968.73
2019-03-09T19:24:10.145Z,100972.08
2019-03-09T19:26:40.842Z,100980.19
2019-03-09T19:29:11.331Z,100978.00
2019-03-09T19:31:44.101Z,100980.56
2019-03-09T19:34:15.042Z,100966.57
2019-03-09T19:36:45.585Z,100977.01
2019-03-09T19:39:18.251Z,100984.83
2019-03-09T19:41:49.448Z,100989.20
2019-03-09T19:44:20.111Z,100985.56
2019-03-09T19:46:51.452Z,100984.62
2019-03-09T19:49:21.667Z,100994.98
2019-03-09T19:51:53.263Z,101004.06
2019-03-09T19:54:23.455Z,101005.42
2019-03-09T19:56:56.247Z,101011.62
2019-03-09T19:59:26.411Z,101004.73
2019-03-09T20:01:59.660Z,101015.41
2019-03-09T20:04:30.454Z,101021.05
2019-03-09T20:07:02.363Z,101024.08
2019-03-09T20:09:34.547Z,101019.87
2019-03-09T20:12:06.819Z,101016.64
2019-03-09T20:14:36.973Z,101024.18
2019-03-09T20:17:07.410Z,101028.73
2019-03-09T20:19:38.231Z,101030.67
2019-03-09T20:22:09.229Z,101039.11
2019-03-09T20:24:39.448Z,101029.14
2019-03-09T20:27:11.250Z,101036.47
2019-03-09T20:29:43.376Z,101043.72
2019-03-09T20:32:14.346Z,101039.78
2019-03-09T20:34:45.860Z,101047.61
2019-03-09T20:37:16.755Z,101031.23
2019-03-09T20:39:47.664Z,101043.95
2019-03-09T20:42:19.116Z,101051.72
2019-03-09T20:44:52.054Z,101043.21
2019-03-09T20:47:22.654Z,101037.62
2019-03-09T20:49:53.252Z,101054.83
2019-03-09T20:52:23.826Z,101061.23
2019-03-09T20:54:54.160Z,101056.14
2019-03-09T20:57:25.872Z,101052.72
2019-03-09T20:59:56.145Z,101043.02
2019-03-09T21:02:27.534Z,101052.14
2019-03-09T21:05:01.997Z,101054.88
2019-03-09T21:07:33.204Z,101048.80
2019-03-09T21:10:04.704Z,101048.04
2019-03-09T21:12:36.800Z,101038.77
2019-03-09T21:15:07.166Z,101044.46
2019-03-09T21:17:37.472Z,101050.35
2019-03-09T21:20:08.335Z,101046.73
2019-03-09T21:22:39.243Z,101046.31
2019-03-09T21:25:10.006Z,101053.92
2019-03-09T21:27:43.962Z,101060.35
2019-03-09T21:30:16.298Z,101053.25
2019-03-09T21:32:46.923Z,101055.23
2019-03-09T21:35:17.427Z,101064.41
2019-03-09T21:37:47.659Z,101059.75
2019-03-09T21:40:18.259Z,101056.91
2019-03-09T21:42:48.891Z,101054.81
2019-03-09T21:45:20.326Z,101055.45
2019-03-09T21:47:50.814Z,101054.27
2019-03-09T21:50:21.199Z,101055.05
2019-03-09T21:52:51.778Z,101045.06
2019-03-09T21:55:24.529Z,101053.77
2019-03-09T21:57:56.760Z,101046.71
2019-03-09T22:00:27.329Z,101058.33
2019-03-09T22:02:58.053Z,101056.65
2019-03-09T22:05:28.338Z,101053.27
2019-03-09T22:07:59.034Z,101056.82
2019-03-09T22:10:29.676Z,101064.20
2019-03-09T22:13:00.307Z,101057.52
2019-03-09T22:15:30.762Z,101054.79
2019-03-09T22:18:03.366Z,101065.18
2019-03-09T22:20:33.544Z,101060.84
2019-03-09T22:23:04.100Z,101067.67
2019-03-09T22:25:35.077Z,101069.20
2019-03-09T22:28:08.830Z,101064.80
2019-03-09T22:30:39.105Z,101067.34
2019-03-09T22:33:11.342Z,101059.69
2019-03-09T22:35:41.978Z,101067.60
2019-03-09T22:38:15.578Z,101060.16
2019-03-09T22:40:46.083Z,101054.19
2019-03-09T22:43:16.378Z,101057.20
2019-03-09T22:45:46.847Z,101053.36
2019-03-09T22:48:18.062Z,101059.64
2019-03-09T22:50:51.195Z,101057.97
2019-03-09T22:53:21.542Z,101056.20
2019-03-09T22:55:51.685Z,101060.69
2019-03-09T22:58:21.866Z,101056.38
2019-03-09T23:00:54.933Z,101054.33
2019-03-09T23:03:25.644Z,101054.99
2019-03-09T23:05:58.245Z,101052.87
2019-03-09T23:08:30.690Z,101052.31
2019-03-09T23:11:01.229Z,101048.66
2019-03-09T23:13:32.376Z,101043.18
2019-03-09T23:16:03.130Z,101058.47
2019-03-09T23:18:35.557Z,101063.02
2019-03-09T23:21:05.703Z,101054.94
2019-03-09T23:23:43.496Z,101058.34
2019-03-09T23:26:15.908Z,101049.58
2019-03-09T23:28:50.934Z,101047.56
2019-03-09T23:31:25.215Z,101042.01
2019-03-09T23:33:59.446Z,101034.94
2019-03-09T23:36:30.492Z,101021.92
2019-03-09T23:39:00.680Z,101009.05
2019-03-09T23:41:32.475Z,101016.75
2019-03-09T23:44:03.021Z,101017.33
2019-03-09T23:46:37.836Z,101021.64
2019-03-09T23:49:09.152Z,101022.90
2019-03-09T23:51:39.304Z,101012.66
2019-03-09T23:54:11.888Z,101019.39
2019-03-09T23:56:43.101Z,101016.84
2019-03-09T23:59:15.624Z,101026.27
